Time;durP1;ratioP1;P1;durP2;ratioP2;P2;SDS_P1;SDS_P2;PMS_P1;PMS_P2;Temp;Humidity;BMP_temperature;BMP_pressure;BME280_temperature;BME280_humidity;BME280_pressure;Samples;Min_cycle;Max_cycle;Signal;HPM_P1;HPM_P2
2022/08/29 00:00:56;;;;;;;7.40;2.58;;;;;;;15.11;100.00;102233.41;5052891;28;20021;-75
2022/08/29 00:03:21;;;;;;;5.68;2.90;;;;;;;15.07;100.00;102231.56;5047700;28;20067;-75
2022/08/29 00:05:47;;;;;;;9.10;3.10;;;;;;;15.03;100.00;102225.31;5056403;28;20419;-75
2022/08/29 00:08:12;;;;;;;5.80;2.75;;;;;;;14.98;100.00;102226.97;5037520;28;20029;-74
2022/08/29 00:10:39;;;;;;;5.25;2.85;;;;;;;14.97;100.00;102227.81;5040098;28;20428;-74
2022/08/29 00:13:06;;;;;;;3.03;2.20;;;;;;;14.94;100.00;102220.69;5036303;28;20040;-74
2022/08/29 00:15:32;;;;;;;6.70;2.50;;;;;;;14.93;100.00;102218.91;5036384;28;20028;-74
2022/08/29 00:17:57;;;;;;;6.20;2.58;;;;;;;14.95;100.00;102222.50;5036873;28;20090;-74
2022/08/29 00:20:26;;;;;;;4.70;2.60;;;;;;;14.91;100.00;102225.94;5045523;28;20504;-75
2022/08/29 00:22:52;;;;;;;7.53;2.55;;;;;;;14.91;100.00;102225.06;5040575;28;20437;-75
2022/08/29 00:25:18;;;;;;;10.15;3.13;;;;;;;14.82;100.00;102226.63;5049929;28;20055;-75
2022/08/29 00:27:43;;;;;;;6.03;2.72;;;;;;;14.77;100.00;102228.31;5055855;28;20056;-75
2022/08/29 00:30:10;;;;;;;6.35;2.40;;;;;;;14.77;100.00;102223.00;5039635;28;20032;-75
2022/08/29 00:32:35;;;;;;;3.33;2.53;;;;;;;14.75;100.00;102224.72;5035892;28;20029;-75
2022/08/29 00:35:03;;;;;;;7.70;3.10;;;;;;;14.72;100.00;102229.97;5036471;28;20029;-74
2022/08/29 00:37:30;;;;;;;5.57;2.88;;;;;;;14.71;100.00;102235.22;5036710;28;20036;-74
2022/08/29 00:39:55;;;;;;;5.75;2.42;;;;;;;14.68;100.00;102233.41;5035992;28;20519;-74
2022/08/29 00:42:21;;;;;;;6.80;2.70;;;;;;;14.64;100.00;102229.78;5039560;28;20030;-75
2022/08/29 00:44:46;;;;;;;11.57;3.15;;;;;;;14.59;100.00;102228.75;5043574;28;20021;-75
2022/08/29 00:47:17;;;;;;;4.40;2.47;;;;;;;14.56;100.00;102227.81;5036350;28;20033;-74
2022/08/29 00:49:47;;;;;;;5.82;2.47;;;;;;;14.50;100.00;102224.16;5035891;28;20029;-75
2022/08/29 00:52:38;;;;;;;6.50;2.72;;;;;;;14.48;100.00;102231.16;5040185;28;20063;-75
2022/08/29 00:55:10;;;;;;;5.20;2.60;;;;;;;14.48;100.00;102232.91;5055353;28;20036;-74
2022/08/29 00:57:37;;;;;;;5.60;2.63;;;;;;;14.44;100.00;102218.69;5041115;28;20040;-75
2022/08/29 01:00:05;;;;;;;8.98;2.60;;;;;;;14.41;100.00;102220.41;5035656;28;20029;-74
2022/08/29 01:02:31;;;;;;;6.00;3.00;;;;;;;14.35;100.00;102218.50;5047023;28;20036;-74
2022/08/29 01:04:59;;;;;;;5.85;3.58;;;;;;;14.28;100.00;102219.22;5055833;28;20029;-75
2022/08/29 01:07:25;;;;;;;8.85;3.88;;;;;;;14.30;100.00;102228.09;5052197;28;20028;-75
2022/08/29 01:09:51;;;;;;;7.35;3.80;;;;;;;14.31;100.00;102232.50;5053106;28;20049;-74
2022/08/29 01:12:18;;;;;;;10.85;3.42;;;;;;;14.31;100.00;102235.16;5045723;28;20479;-74
2022/08/29 01:14:58;;;;;;;7.97;4.40;;;;;;;14.30;100.00;102246.63;5035094;28;20040;-74
2022/08/29 01:17:29;;;;;;;7.40;3.97;;;;;;;14.28;100.00;102243.03;5034831;28;20108;-74
2022/08/29 01:19:59;;;;;;;7.68;3.88;;;;;;;14.30;100.00;102246.63;5035257;28;20400;-75
2022/08/29 01:22:33;;;;;;;8.25;4.05;;;;;;;14.27;100.00;102241.25;5041753;28;20025;-76
2022/08/29 01:25:02;;;;;;;7.18;3.55;;;;;;;14.23;100.00;102245.59;5055973;28;20024;-75
2022/08/29 01:27:30;;;;;;;5.47;3.55;;;;;;;14.20;100.00;102247.25;5036126;28;20052;-75
2022/08/29 01:29:56;;;;;;;9.00;4.45;;;;;;;14.13;100.00;102243.56;5037700;28;20086;-75
2022/08/29 01:32:23;;;;;;;8.73;3.97;;;;;;;14.04;100.00;102244.25;5035089;28;20025;-75
2022/08/29 01:34:49;;;;;;;9.10;3.67;;;;;;;13.96;100.00;102237.88;5034803;28;20021;-75
2022/08/29 01:37:15;;;;;;;5.32;2.90;;;;;;;13.94;100.00;102243.09;5035053;28;20087;-74
2022/08/29 01:39:43;;;;;;;10.68;4.10;;;;;;;13.91;100.00;102232.44;5041361;28;20052;-75
2022/08/29 01:42:17;;;;;;;9.65;3.25;;;;;;;13.90;100.00;102235.94;5036465;28;20021;-74
2022/08/29 01:44:55;;;;;;;4.47;3.10;;;;;;;13.85;100.00;102237.59;5038954;28;20033;-75
2022/08/29 01:47:24;;;;;;;8.50;3.97;;;;;;;13.83;100.00;102229.59;5041113;28;20036;-75
2022/08/29 01:49:50;;;;;;;7.43;3.53;;;;;;;13.81;100.00;102236.63;5054454;28;20090;-75
2022/08/29 01:52:16;;;;;;;9.63;3.72;;;;;;;13.85;100.00;102236.69;5045104;28;20029;-75
2022/08/29 01:54:42;;;;;;;5.45;3.10;;;;;;;13.84;100.00;102230.50;5036522;28;20040;-75
2022/08/29 01:57:09;;;;;;;10.35;4.00;;;;;;;13.78;100.00;102241.84;5043646;28;20021;-73
2022/08/29 01:59:35;;;;;;;6.82;3.85;;;;;;;13.75;100.00;102233.81;5040168;28;20029;-74
2022/08/29 02:02:15;;;;;;;6.13;3.50;;;;;;;13.76;100.00;102237.38;5047407;28;20022;-74
2022/08/29 02:04:42;;;;;;;8.23;3.97;;;;;;;13.73;100.00;102247.88;5035451;28;20025;-75
2022/08/29 02:07:08;;;;;;;6.07;3.22;;;;;;;13.77;100.00;102234.75;5034334;28;20448;-75
2022/08/29 02:09:33;;;;;;;7.18;3.55;;;;;;;13.78;100.00;102236.56;5037423;28;20073;-74
2022/08/29 02:12:01;;;;;;;4.68;3.10;;;;;;;13.74;100.00;102241.69;5037293;28;20029;-74
2022/08/29 02:14:28;;;;;;;6.53;3.70;;;;;;;13.72;100.00;102232.84;5053806;28;20174;-74
2022/08/29 02:16:54;;;;;;;6.95;3.92;;;;;;;13.76;100.00;102238.25;5037939;28;20033;-75
2022/08/29 02:19:20;;;;;;;5.22;3.22;;;;;;;13.73;100.00;102230.25;5034554;28;20029;-74
2022/08/29 02:21:46;;;;;;;5.50;3.70;;;;;;;13.66;100.00;102228.31;5040942;28;20047;-75
2022/08/29 02:24:12;;;;;;;9.55;3.95;;;;;;;13.60;100.00;102221.06;5052622;28;20536;-74
2022/08/29 02:26:37;;;;;;;9.80;3.80;;;;;;;13.60;100.00;102220.19;5042423;28;20025;-75
2022/08/29 02:29:03;;;;;;;6.70;3.40;;;;;;;13.56;100.00;102227.13;5033962;28;20060;-75
2022/08/29 02:31:28;;;;;;;8.00;3.53;;;;;;;13.53;100.00;102228.81;5034072;28;20029;-75
2022/08/29 02:33:54;;;;;;;7.07;4.03;;;;;;;13.54;100.00;102230.59;5034478;28;20079;-75
2022/08/29 02:36:20;;;;;;;8.52;3.70;;;;;;;13.52;100.00;102232.31;5033935;28;20026;-75
2022/08/29 02:38:46;;;;;;;5.20;3.05;;;;;;;13.47;100.00;102224.28;5033408;28;20017;-75
2022/08/29 02:41:12;;;;;;;8.90;4.22;;;;;;;13.44;100.00;102230.38;5033492;28;20029;-75
2022/08/29 02:43:38;;;;;;;6.28;3.20;;;;;;;13.47;100.00;102225.16;5033612;28;20040;-74
2022/08/29 02:46:03;;;;;;;10.02;3.30;;;;;;;13.48;100.00;102226.97;5034398;28;20025;-74
2022/08/29 02:48:29;;;;;;;6.13;3.28;;;;;;;13.51;100.00;102235.81;5033529;28;20036;-74
2022/08/29 02:50:57;;;;;;;6.05;3.72;;;;;;;13.52;100.00;102237.59;5035416;28;20068;-75
2022/08/29 02:53:26;;;;;;;4.95;3.75;;;;;;;13.56;100.00;102235.06;5053561;28;20024;-74
2022/08/29 02:55:51;;;;;;;6.32;3.30;;;;;;;13.54;100.00;102231.50;5047310;28;20125;-75
2022/08/29 02:58:18;;;;;;;10.32;3.88;;;;;;;13.51;100.00;102230.53;5033559;28;20450;-75
2022/08/29 03:00:43;;;;;;;6.38;3.20;;;;;;;13.48;100.00;102232.25;5038890;28;20029;-74
2022/08/29 03:03:09;;;;;;;5.22;3.42;;;;;;;13.45;100.00;102226.84;5042637;28;20525;-75
2022/08/29 03:05:36;;;;;;;8.27;3.20;;;;;;;13.45;100.00;102228.63;5033427;28;20063;-75
2022/08/29 03:08:05;;;;;;;7.30;3.25;;;;;;;13.45;100.00;102236.53;5033185;28;20029;-74
2022/08/29 03:10:31;;;;;;;6.60;3.22;;;;;;;13.45;100.00;102226.84;5032979;28;20500;-75
2022/08/29 03:12:56;;;;;;;5.15;3.17;;;;;;;13.42;100.00;102224.13;5036563;28;20029;-74
2022/08/29 03:15:22;;;;;;;5.80;3.10;;;;;;;13.41;100.00;102230.25;5047562;28;20036;-74
2022/08/29 03:17:48;;;;;;;11.70;3.22;;;;;;;13.38;100.00;102222.25;5054154;28;20041;-76
2022/08/29 03:20:16;;;;;;;4.85;2.80;;;;;;;13.36;100.00;102229.28;5045877;28;20419;-75
2022/08/29 03:22:43;;;;;;;5.45;2.80;;;;;;;13.33;100.00;102216.84;5056545;28;20029;-75
2022/08/29 03:25:09;;;;;;;6.65;3.05;;;;;;;13.31;100.00;102220.28;5041277;28;20481;-75
2022/08/29 03:27:34;;;;;;;7.13;3.38;;;;;;;13.32;100.00;102216.75;5041194;28;20033;-74
2022/08/29 03:30:00;;;;;;;6.57;2.70;;;;;;;13.30;100.00;102214.06;5040903;28;20062;-74
2022/08/29 03:32:26;;;;;;;4.78;2.97;;;;;;;13.31;100.00;102204.41;5037039;28;20087;-75
2022/08/29 03:34:54;;;;;;;6.25;2.90;;;;;;;13.30;100.00;102205.25;5046906;28;20024;-75
2022/08/29 03:37:19;;;;;;;7.70;3.75;;;;;;;13.26;100.00;102201.63;5042373;28;20112;-74
2022/08/29 03:39:45;;;;;;;8.15;3.17;;;;;;;13.23;100.00;102206.84;5037067;28;20112;-74
2022/08/29 03:42:11;;;;;;;4.60;3.10;;;;;;;13.18;100.00;102200.53;5037332;28;20026;-73
2022/08/29 03:44:39;;;;;;;7.88;3.03;;;;;;;13.15;100.00;102201.34;5036964;28;20108;-75
2022/08/29 03:47:05;;;;;;;7.72;3.35;;;;;;;13.15;100.00;102205.75;5036903;28;20370;-75
2022/08/29 03:49:31;;;;;;;7.85;3.22;;;;;;;13.13;100.00;102200.41;5041314;28;20033;-76
2022/08/29 03:51:56;;;;;;;5.72;2.97;;;;;;;13.09;100.00;102193.25;5046316;28;20057;-75
2022/08/29 03:54:21;;;;;;;4.78;2.45;;;;;;;13.08;100.00;102188.81;5036848;28;20029;-75
2022/08/29 03:56:47;;;;;;;6.22;3.10;;;;;;;13.04;100.00;102189.59;5046954;28;20032;-74
2022/08/29 03:59:13;;;;;;;7.03;3.40;;;;;;;13.03;100.00;102190.44;5037375;28;20063;-74
2022/08/29 04:01:39;;;;;;;4.93;2.95;;;;;;;13.06;100.00;102200.19;5036396;28;20026;-74
2022/08/29 04:04:05;;;;;;;8.27;3.28;;;;;;;13.07;100.00;102192.28;5045550;28;20060;-74
2022/08/29 04:06:32;;;;;;;8.43;3.45;;;;;;;13.07;100.00;102187.00;5036332;28;20377;-74
2022/08/29 04:08:57;;;;;;;7.97;3.30;;;;;;;13.03;100.00;102189.53;5039999;28;20038;-74
2022/08/29 04:11:24;;;;;;;11.93;5.13;;;;;;;12.98;100.00;102194.69;5048064;28;20071;-74
2022/08/29 04:13:50;;;;;;;7.53;3.05;;;;;;;12.98;100.00;102192.03;5043687;28;20147;-75
2022/08/29 04:16:20;;;;;;;5.68;2.88;;;;;;;12.99;100.00;102193.84;5044923;28;20037;-75
2022/08/29 04:18:45;;;;;;;7.15;3.20;;;;;;;12.99;100.00;102188.56;5051742;28;20033;-75
2022/08/29 04:21:11;;;;;;;10.07;3.47;;;;;;;13.00;100.00;102200.91;5037622;28;20032;-75
2022/08/29 04:23:38;;;;;;;6.75;3.30;;;;;;;13.01;100.00;102201.81;5058885;28;20025;-75
2022/08/29 04:26:04;;;;;;;9.35;3.83;;;;;;;13.02;100.00;102199.19;5048323;28;20032;-75
2022/08/29 04:28:30;;;;;;;11.48;5.07;;;;;;;13.02;100.00;102204.47;5034921;28;20100;-75
2022/08/29 04:30:55;;;;;;;13.55;5.38;;;;;;;13.03;100.00;102201.00;5040139;28;20123;-75
2022/08/29 04:33:23;;;;;;;10.73;4.40;;;;;;;13.03;100.00;102206.28;5043334;28;20017;-75
2022/08/29 04:35:50;;;;;;;8.13;4.03;;;;;;;13.02;100.00;102208.88;5037253;28;20029;-75
2022/08/29 04:38:18;;;;;;;11.35;4.65;;;;;;;13.00;100.00;102211.47;5045669;28;20104;-75
2022/08/29 04:40:44;;;;;;;6.47;3.42;;;;;;;12.99;100.00;102213.25;5054467;28;20334;-75
2022/08/29 04:43:10;;;;;;;9.15;3.80;;;;;;;13.01;100.00;102218.56;5049251;28;20045;-75
2022/08/29 04:45:39;;;;;;;4.32;3.15;;;;;;;13.03;100.00;102211.56;5035885;28;20025;-75
2022/08/29 04:48:05;;;;;;;7.13;3.58;;;;;;;13.07;100.00;102218.72;5039881;28;20105;-74
2022/08/29 04:50:31;;;;;;;6.78;3.33;;;;;;;13.11;100.00;102211.78;5036351;28;20030;-75
2022/08/29 04:52:56;;;;;;;5.93;3.78;;;;;;;13.16;100.00;102224.28;5035343;28;20030;-75
2022/08/29 04:55:23;;;;;;;5.25;3.72;;;;;;;13.19;100.00;102225.22;5055744;28;20040;-75
2022/08/29 04:57:50;;;;;;;7.05;3.35;;;;;;;13.28;100.00;102230.75;5046783;28;20031;-75
2022/08/29 05:00:20;;;;;;;8.20;3.58;;;;;;;13.44;100.00;102229.47;5039652;28;20053;-75
2022/08/29 05:02:45;;;;;;;7.13;3.40;;;;;;;13.55;100.00;102222.72;5036625;28;20021;-74
2022/08/29 05:05:13;;;;;;;11.43;4.50;;;;;;;13.57;100.00;102231.59;5052380;28;20031;-75
2022/08/29 05:07:39;;;;;;;8.23;4.80;;;;;;;13.60;100.00;102223.72;5038582;28;20029;-75
2022/08/29 05:10:08;;;;;;;6.28;3.08;;;;;;;13.60;100.00;102225.47;5040445;28;20445;-75
2022/08/29 05:12:34;;;;;;;5.57;3.70;;;;;;;13.59;100.00;102228.97;5038715;28;20095;-75
2022/08/29 05:14:59;;;;;;;10.57;3.92;;;;;;;13.58;100.00;102233.38;5046321;28;20116;-75
2022/08/29 05:17:26;;;;;;;9.50;3.17;;;;;;;13.59;100.00;102243.13;5054596;28;20135;-75
2022/08/29 05:19:52;;;;;;;8.30;3.60;;;;;;;13.60;100.00;102241.34;5053694;28;20076;-75
2022/08/29 05:22:19;;;;;;;9.05;3.95;;;;;;;13.62;100.00;102245.81;5037807;28;20143;-75
2022/08/29 05:24:45;;;;;;;7.13;3.33;;;;;;;13.65;100.00;102245.03;5038234;28;20041;-75
2022/08/29 05:27:14;;;;;;;10.68;3.53;;;;;;;13.68;100.00;102245.09;5048604;28;20481;-74
2022/08/29 05:29:41;;;;;;;7.68;3.58;;;;;;;13.75;100.00;102249.69;5048478;28;20044;-75
2022/08/29 05:32:09;;;;;;;8.65;3.83;;;;;;;13.80;100.00;102244.53;5043104;28;20056;-73
2022/08/29 05:34:35;;;;;;;6.22;3.53;;;;;;;13.87;100.00;102256.16;5034973;28;20017;-75
2022/08/29 05:37:03;;;;;;;6.85;4.22;;;;;;;13.91;100.00;102253.63;5039672;28;20054;-74
2022/08/29 05:39:29;;;;;;;9.52;3.60;;;;;;;13.95;100.00;102257.25;5039221;28;20021;-74
2022/08/29 05:41:55;;;;;;;5.68;3.70;;;;;;;14.01;100.00;102257.38;5044832;28;20473;-76
2022/08/29 05:44:21;;;;;;;6.40;3.33;;;;;;;14.06;100.00;102257.53;5050496;28;20086;-75
2022/08/29 05:46:47;;;;;;;7.13;3.88;;;;;;;14.09;100.00;102253.19;5052354;28;20021;-75
2022/08/29 05:49:13;;;;;;;9.80;3.65;;;;;;;14.15;100.00;102263.94;5040086;28;20060;-72
2022/08/29 05:51:39;;;;;;;8.10;4.28;;;;;;;14.20;100.00;102263.16;5045586;28;20013;-70
2022/08/29 05:54:05;;;;;;;7.35;4.47;;;;;;;14.25;100.00;102261.50;5044934;28;20170;-72
2022/08/29 05:56:30;;;;;;;15.55;4.00;;;;;;;14.30;100.00;102265.16;5041404;28;20037;-74
2022/08/29 05:58:59;;;;;;;6.28;3.45;;;;;;;14.35;100.00;102260.84;5048712;28;20031;-73
2022/08/29 06:01:27;;;;;;;9.80;4.50;;;;;;;14.41;100.00;102266.31;5034623;28;20021;-73
2022/08/29 06:03:54;;;;;;;10.77;4.30;;;;;;;14.47;100.00;102266.47;5051807;28;20040;-74
2022/08/29 06:06:21;;;;;;;9.98;4.40;;;;;;;14.55;100.00;102273.69;5047810;28;20048;-73
2022/08/29 06:08:46;;;;;;;9.98;4.60;;;;;;;14.61;100.00;102266.78;5042101;28;20045;-73
2022/08/29 06:11:14;;;;;;;13.90;5.03;;;;;;;14.72;100.00;102264.41;5040428;28;20366;-73
2022/08/29 06:13:39;;;;;;;11.07;4.72;;;;;;;14.79;100.00;102262.78;5047239;28;20111;-73
2022/08/29 06:16:04;;;;;;;9.90;4.68;;;;;;;14.91;100.00;102267.47;5039049;28;20163;-73
2022/08/29 06:18:30;;;;;;;7.40;5.00;;;;;;;15.00;100.00;102273.84;5049692;28;20099;-74
2022/08/29 06:20:55;;;;;;;11.88;5.47;;;;;;;15.07;100.00;102266.94;5039790;28;20530;-74
2022/08/29 06:23:20;;;;;;;12.60;4.90;;;;;;;15.13;100.00;102263.50;5036564;28;20034;-72
2022/08/29 06:25:54;;;;;;;21.05;5.35;;;;;;;15.20;100.00;102264.53;5041872;28;20029;-73
2022/08/29 06:28:20;;;;;;;12.20;4.72;;;;;;;15.26;100.00;102269.94;5044645;28;20085;-73
2022/08/29 06:30:45;;;;;;;7.35;4.63;;;;;;;15.31;100.00;102262.97;5038986;28;20056;-68
2022/08/29 06:33:10;;;;;;;8.65;5.25;;;;;;;15.37;100.00;102263.09;5033942;28;20064;-68
2022/08/29 06:35:36;;;;;;;13.05;5.05;;;;;;;15.47;100.00;102258.88;5033655;28;20029;-69
2022/08/29 06:38:01;;;;;;;8.70;4.97;;;;;;;15.51;100.00;102261.59;5041246;28;20033;-73
2022/08/29 06:40:26;;;;;;;9.35;4.47;;;;;;;15.55;100.00;102256.38;5049266;28;20017;-73
2022/08/29 06:42:52;;;;;;;9.93;5.10;;;;;;;15.60;100.00;102265.28;5033654;28;20090;-75
2022/08/29 06:45:17;;;;;;;10.25;5.53;;;;;;;15.63;100.00;102270.66;5043034;28;20056;-72
2022/08/29 06:47:45;;;;;;;9.38;4.55;;;;;;;15.68;100.00;102271.63;5038744;28;20510;-73
2022/08/29 06:50:10;;;;;;;6.47;4.80;;;;;;;15.75;100.00;102268.22;5048789;28;20119;-73
2022/08/29 06:52:36;;;;;;;6.22;3.80;;;;;;;15.81;100.00;102263.03;5050692;28;20441;-73
2022/08/29 06:55:01;;;;;;;7.60;3.90;;;;;;;15.87;100.00;102264.03;5051226;28;20021;-73
2022/08/29 06:57:27;;;;;;;7.22;3.88;;;;;;;15.95;100.00;102265.06;5050496;28;20389;-74
2022/08/29 06:59:52;;;;;;;10.15;4.13;;;;;;;15.99;100.00;102261.59;5046357;28;20366;-74
2022/08/29 07:02:18;;;;;;;13.75;3.78;;;;;;;16.07;100.00;102265.25;5051326;28;20025;-74
2022/08/29 07:04:43;;;;;;;6.85;3.63;;;;;;;16.14;100.00;102260.94;5051439;28;20031;-73
2022/08/29 07:07:08;;;;;;;4.90;2.90;;;;;;;16.28;100.00;102266.50;5049722;28;20029;-74
2022/08/29 07:09:34;;;;;;;9.40;3.50;;;;;;;16.37;100.00;102256.00;5035122;28;20044;-74
2022/08/29 07:12:00;;;;;;;16.15;4.03;;;;;;;16.44;100.00;102263.19;5046846;28;20091;-75
2022/08/29 07:14:25;;;;;;;5.57;3.63;;;;;;;16.54;100.00;102263.34;5042479;28;20456;-74
2022/08/29 07:16:50;;;;;;;8.07;2.95;;;;;;;16.61;100.00;102265.22;5052981;28;20103;-73
2022/08/29 07:19:16;;;;;;;11.63;3.10;;;;;;;16.71;100.00;102267.09;5048311;28;20120;-74
2022/08/29 07:21:41;;;;;;;13.88;5.13;;;;;;;16.82;100.00;102269.91;5050757;28;20519;-74
2022/08/29 07:24:07;;;;;;;5.82;3.53;;;;;;;16.79;100.00;102270.78;5052758;28;20068;-73
2022/08/29 07:26:41;;;;;;;5.05;2.78;;;;;;;16.91;100.00;102270.06;5047793;28;20388;-73
2022/08/29 07:29:10;;;;;;;9.43;3.45;;;;;;;16.91;100.00;102269.19;5037472;28;20030;-74
2022/08/29 07:31:37;;;;;;;7.70;3.35;;;;;;;16.95;100.00;102276.34;5040327;28;20070;-74
2022/08/29 07:34:03;;;;;;;7.68;3.20;;;;;;;17.01;100.00;102265.75;5051180;28;20029;-74
2022/08/29 07:36:32;;;;;;;11.10;3.45;;;;;;;17.04;100.00;102263.16;5042191;28;20040;-74
2022/08/29 07:38:58;;;;;;;11.65;3.25;;;;;;;17.07;100.00;102265.84;5053455;28;20048;-74
2022/08/29 07:41:24;;;;;;;5.05;2.95;;;;;;;17.09;100.00;102269.44;5053276;28;20055;-74
2022/08/29 07:43:49;;;;;;;6.90;2.72;;;;;;;17.18;100.00;102272.19;5053155;28;20021;-74
2022/08/29 07:46:17;;;;;;;6.35;3.05;;;;;;;17.28;100.00;102265.22;5053142;28;20031;-74
2022/08/29 07:48:43;;;;;;;7.13;3.47;;;;;;;17.27;100.00;102268.75;5051807;28;20036;-74
2022/08/29 07:51:11;;;;;;;6.68;2.88;;;;;;;17.25;100.00;102275.81;5043563;28;20022;-75
2022/08/29 07:53:37;;;;;;;8.13;3.15;;;;;;;17.32;100.00;102283.00;5056747;28;20056;-74
2022/08/29 07:56:07;;;;;;;6.47;2.83;;;;;;;17.37;100.00;102275.06;5049725;28;20064;-74
2022/08/29 07:58:32;;;;;;;5.47;2.47;;;;;;;17.36;100.00;102273.28;5034794;28;20029;-74
2022/08/29 08:00:58;;;;;;;8.07;2.70;;;;;;;17.38;100.00;102271.53;5032740;28;20056;-73
2022/08/29 08:03:25;;;;;;;8.10;2.75;;;;;;;17.44;100.00;102266.28;5035611;28;20056;-73
2022/08/29 08:05:52;;;;;;;8.15;3.03;;;;;;;17.53;100.00;102261.06;5042005;28;20107;-74
2022/08/29 08:08:17;;;;;;;5.57;3.00;;;;;;;17.57;100.00;102256.66;5043741;28;20084;-74
2022/08/29 08:10:43;;;;;;;5.57;2.95;;;;;;;17.64;100.00;102263.81;5039303;28;20064;-72
2022/08/29 08:13:09;;;;;;;5.82;2.60;;;;;;;17.69;100.00;102258.56;5053398;28;20032;-75
2022/08/29 08:15:37;;;;;;;9.68;2.92;;;;;;;17.73;100.00;102268.38;5036730;28;20483;-72
2022/08/29 08:18:02;;;;;;;6.40;2.97;;;;;;;17.76;100.00;102273.72;5036588;28;20031;-74
2022/08/29 08:20:28;;;;;;;4.32;2.42;;;;;;;17.82;100.00;102270.22;5048023;28;20531;-74
2022/08/29 08:22:53;;;;;;;5.97;2.50;;;;;;;17.91;100.00;102278.28;5051692;28;20056;-74
2022/08/29 08:25:18;;;;;;;7.53;2.78;;;;;;;17.97;100.00;102273.06;5045493;28;20068;-73
2022/08/29 08:27:44;;;;;;;6.13;2.60;;;;;;;18.04;100.00;102281.97;5046887;28;20021;-74
2022/08/29 08:30:10;;;;;;;7.63;2.50;;;;;;;18.14;100.00;102281.19;5052139;28;20512;-73
2022/08/29 08:32:35;;;;;;;8.23;2.83;;;;;;;18.22;100.00;102283.91;5049946;28;20025;-73
2022/08/29 08:35:00;;;;;;;8.48;3.13;;;;;;;18.34;100.00;102283.13;5039868;28;20052;-73
2022/08/29 08:37:26;;;;;;;6.13;3.28;;;;;;;18.44;100.00;102279.63;5068297;28;20374;-72
2022/08/29 08:39:55;;;;;;;6.30;3.63;;;;;;;18.48;100.00;102281.44;5056702;28;20028;-73
2022/08/29 08:42:31;;;;;;;6.93;2.78;;;;;;;18.56;100.00;102277.91;5055781;28;20401;-73
2022/08/29 08:45:04;;;;;;;8.20;2.70;;;;;;;18.56;100.00;102277.91;5071447;28;20031;-73
2022/08/29 08:47:32;;;;;;;;;;;;;;;18.63;100.00;102285.09;5048473;28;20076;-73
2022/08/29 08:50:08;;;;;;;8.25;2.75;;;;;;;18.66;100.00;102285.09;5051153;28;20299;-73
2022/08/29 08:52:43;;;;;;;9.68;2.53;;;;;;;18.70;100.00;102294.91;5056074;28;20020;-73
2022/08/29 08:55:23;;;;;;;10.10;2.70;;;;;;;18.63;100.00;102295.75;5056097;28;20029;-73
2022/08/29 08:58:13;;;;;;;4.55;2.53;;;;;;;18.59;100.00;102305.50;5056004;28;20024;-73
2022/08/29 09:01:08;;;;;;;8.05;2.15;;;;;;;18.66;100.00;102298.44;5054497;28;20032;-73
2022/08/29 09:03:54;;;;;;;9.20;2.65;;;;;;;18.66;100.00;102296.63;5052198;28;20392;-74
2022/08/29 09:06:38;;;;;;;7.47;2.08;;;;;;;18.75;100.00;102294.94;5037521;28;20096;-75
2022/08/29 09:09:35;;;;;;;11.82;2.33;;;;;;;18.76;100.00;102294.94;5035193;28;20452;-75
2022/08/29 09:12:31;;;;;;;7.97;2.38;;;;;;;18.74;100.00;102299.38;5035767;28;20425;-75
2022/08/29 09:15:06;;;;;;;6.07;2.53;;;;;;;18.67;100.00;102293.09;5035036;28;20041;-73
2022/08/29 09:17:54;;;;;;;7.35;2.33;;;;;;;18.63;100.00;102296.63;5043833;28;20029;-73
2022/08/29 09:20:27;;;;;;;6.97;2.70;;;;;;;18.60;100.00;102303.72;5046477;28;20032;-73
2022/08/29 09:23:01;;;;;;;5.47;2.08;;;;;;;18.68;100.00;102296.69;5047450;28;20416;-72
2022/08/29 09:25:28;;;;;;;6.22;2.40;;;;;;;18.73;100.00;102302.03;5050843;28;20052;-72
2022/08/29 09:27:54;;;;;;;6.10;2.38;;;;;;;18.82;100.00;102302.97;5065758;28;20024;-72
2022/08/29 09:30:23;;;;;;;7.90;2.15;;;;;;;18.87;100.00;102305.69;5055051;28;20373;-72
2022/08/29 09:32:51;;;;;;;6.07;2.38;;;;;;;18.97;100.00;102306.66;5055293;28;20024;-73
2022/08/29 09:35:21;;;;;;;4.18;2.35;;;;;;;19.04;100.00;102304.03;5054319;28;20032;-74
2022/08/29 09:38:04;;;;;;;3.50;1.90;;;;;;;19.09;100.00;102309.38;5043419;28;20240;-72
2022/08/29 09:40:49;;;;;;;13.88;2.95;;;;;;;19.13;100.00;102294.28;5051896;28;20059;-73
2022/08/29 09:43:34;;;;;;;7.75;2.40;;;;;;;19.12;100.00;102301.38;5046121;28;20091;-73
2022/08/29 09:46:24;;;;;;;5.00;2.10;;;;;;;19.06;100.00;102298.69;5052446;28;20052;-73
2022/08/29 09:48:52;;;;;;;5.20;2.22;;;;;;;19.06;100.00;102301.34;5036238;28;20641;-72
2022/08/29 09:51:33;;;;;;;8.23;2.63;;;;;;;19.01;100.00;102289.78;5036806;28;20478;-75
2022/08/29 09:54:27;;;;;;;7.97;2.33;;;;;;;18.98;100.00;102293.31;5051376;28;20036;-74
2022/08/29 09:56:59;;;;;;;;;;;;;;;19.04;100.00;102295.09;5055788;28;20496;-74
2022/08/29 09:59:41;;;;;;;14.55;2.90;;;;;;;19.10;100.00;102286.22;5054987;28;19908;-73
2022/08/29 10:02:29;;;;;;;8.13;2.22;;;;;;;19.10;100.00;102284.47;5050939;28;20111;-73
2022/08/29 10:04:59;;;;;;;8.23;2.22;;;;;;;19.12;100.00;102290.69;5046147;28;20079;-74
2022/08/29 10:07:26;;;;;;;6.30;2.50;;;;;;;19.10;100.00;102292.47;5034383;28;20100;-74
2022/08/29 10:10:20;;;;;;;9.23;2.20;;;;;;;19.12;100.00;102296.03;5045103;28;20061;-74
2022/08/29 10:13:17;;;;;;;4.90;1.88;;;;;;;19.13;100.00;102292.47;5032592;28;20033;-74
2022/08/29 10:16:01;;;;;;;7.70;2.55;;;;;;;19.11;100.00;102301.38;5034493;28;20405;-75
2022/08/29 10:18:45;;;;;;;6.07;2.80;;;;;;;19.04;100.00;102292.44;5044083;28;20036;-74
2022/08/29 10:21:52;;;;;;;6.00;2.00;;;;;;;18.88;100.00;102302.13;5052669;28;20036;-75
2022/08/29 10:24:45;;;;;;;3.35;1.90;;;;;;;18.68;100.00;102294.88;5053861;28;20035;-74
2022/08/29 10:27:28;;;;;;;6.88;2.47;;;;;;;18.63;100.00;102301.09;5040214;28;20033;-75
2022/08/29 10:30:01;;;;;;;;;;;;;;;18.63;100.00;102293.09;5046255;28;20028;-74
2022/08/29 10:32:55;;;;;;;6.75;2.03;;;;;;;18.59;100.00;102304.63;5056534;28;19948;-74
2022/08/29 10:35:52;;;;;;;7.03;2.10;;;;;;;18.62;100.00;102299.28;5034561;28;20416;-75
2022/08/29 10:38:28;;;;;;;7.15;2.00;;;;;;;18.62;100.00;102299.28;5039824;28;20092;-74
2022/08/29 10:40:58;;;;;;;9.68;2.33;;;;;;;18.67;100.00;102294.88;5045380;28;20052;-73
2022/08/29 10:43:44;;;;;;;3.90;2.17;;;;;;;18.74;100.00;102295.81;5051451;28;20021;-72
2022/08/29 10:46:47;;;;;;;5.00;2.80;;;;;;;18.87;100.00;102293.22;5045138;28;20037;-73
2022/08/29 10:49:12;;;;;;;5.47;1.98;;;;;;;19.08;100.00;102285.34;5039500;28;20499;-73
2022/08/29 10:51:56;;;;;;;6.22;2.17;;;;;;;19.31;100.00;102285.44;5039516;28;20099;-73
2022/08/29 10:54:51;;;;;;;6.40;2.22;;;;;;;19.55;100.00;102284.63;5047624;28;20396;-74
2022/08/29 10:57:40;;;;;;;10.73;2.10;;;;;;;19.71;100.00;102282.88;5037277;28;20025;-76
2022/08/29 11:00:14;;;;;;;7.38;2.30;;;;;;;19.71;100.00;102277.53;5037237;28;20068;-77
2022/08/29 11:02:52;;;;;;;5.93;2.78;;;;;;;19.59;100.00;102281.06;5032524;28;20028;-74
2022/08/29 11:05:47;;;;;;;7.30;2.40;;;;;;;19.57;100.00;102279.28;5049143;28;20052;-75
2022/08/29 11:08:28;;;;;;;6.93;2.50;;;;;;;19.63;100.00;102271.25;5049387;28;20106;-74
2022/08/29 11:10:53;;;;;;;5.70;2.50;;;;;;;19.74;100.00;102276.63;5048239;28;20029;-76
2022/08/29 11:13:25;;;;;;;5.53;2.58;;;;;;;19.97;100.00;102277.59;5042073;28;20560;-75
2022/08/29 11:16:01;;;;;;;8.68;2.65;;;;;;;20.36;100.00;102274.88;5052613;28;20044;-76
2022/08/29 11:18:32;;;;;;;10.98;2.92;;;;;;;20.58;100.00;102274.84;5035392;28;20021;-74
2022/08/29 11:21:15;;;;;;;7.70;2.65;;;;;;;20.67;98.26;102269.47;5043119;28;20057;-75
2022/08/29 11:23:42;;;;;;;9.13;2.78;;;;;;;20.59;95.02;102271.28;5032977;28;20044;-73
2022/08/29 11:26:28;;;;;;;7.78;2.22;;;;;;;20.50;95.98;102262.38;5043169;28;20119;-73
2022/08/29 11:29:25;;;;;;;5.80;2.92;;;;;;;20.42;94.71;102268.66;5064825;28;20442;-74